Parcel Return Service, DC

1:33 PM EST on January 27, 2015 (GMT -0500)
DCNet Hoover Building Washington DC | Change Station
CLOSE
Current Station
Personal Weather Station
Location: Washington, DC
Elevation: 231 ft
Nearby Weather Stations

Elev 231 ft 38.89 °N, 77.03 °W | Updated 33 minutes ago

Overcast
Overcast
33 °F
Feels Like 26 °F
N
9
Wind Variable Wind from NW
Gusts 0.0 mph

Today
High -- | Low -- °F
--% Chance of Precip.
Yesterday
High -- | Low -- °F
Precip. -- in
7:18 AM 5:23 PM
First Quarter, 56% visible
Pressure 29.81 in
Visibility 10.0 miles
Clouds Mostly Cloudy 2800 ft
Mostly Cloudy 7000 ft
Mostly Cloudy 25000 ft
Windchill 26 °F
Dew Point 23 °F
Humidity 67%
Rainfall -999.00 in
Snow Depth Not available.
UV 2 out of 12
Pollen Not available.
Air Quality Not available.
Flu Activity Not available.
METAR KDCA 271752Z 34014KT 10SM BKN028 BKN070 BKN250 02/M05 A2981 RMK AO2 SLP094 60000 T00171050 10022 21006 58008

More Conditions Fewer Conditions

Pressure 29.81 in
Visibility 10.0 miles
Clouds Mostly Cloudy 2800 ft
Mostly Cloudy 7000 ft
Mostly Cloudy 25000 ft
Windchill 26 °F
Dew Point 23 °F
Humidity 67%
Rainfall -999.00 in
Snow Depth Not available.
UV 2 out of 12
Pollen Not available.
Air Quality Not available.
Flu Activity Not available.
METAR KDCA 271752Z 34014KT 10SM BKN028 BKN070 BKN250 02/M05 A2981 RMK AO2 SLP094 60000 T00171050 10022 21006 58008

More Conditions Fewer Conditions

10-Day Weather Forecast

Almanac

Astronomy

Jan. 27, 2015 Rise Set
Actual Time
Civil Twilight
Nautical Twilight
Astronomical Twilight
Moon
Length of Visible Light
Length of Day
Tomorrow will be .
, % of the Moon is Illuminated

Today's Extremes

State Highs State Lows

Community

WunderPhotos

Upload Photos

1,790,757 photos uploaded!

WunderBlogs® & News

Nearby

Air Quality

  Air Quality AQ Index Pollutant
Not available.

Snow Depth

Station Depth Elevation

Earthquake Activity

City Distance Mag. Time & Date
Minimum magnitude displayed is 2.5.

Coastal Water Temperatures

Place Temperature

Nearby Weather Stations